Main page
METAR-TAF:

METAR-TAF

Airports :

Colmenar Viejo, Spain

latitude: 40-39N, longitude: 003-44W, elevation: -999 m

Current weather observation

The report was made 13 minutes ago, at 08:30 UTC
Calm wind
Temperature 18°C
Humidity 37%
Pressure 1021 hPa
Visibility 10 km or more
Few clouds at a height of 5000 ft

METAR: LECV 180830Z 00000KT 9999 FEW050 18/03 Q1021

Time: 10:43 (08:43 UTC)

Forecast

The report was made 3 hours and 43 minutes ago, at 05:00 UTC
Forecast valid from 18 at 06 UTC to 19 at 06 UTC
Wind 4 kt from variable directions
Visibility 10 km or more
no clouds below 1500 m and no cumulonimbus
Becoming
from 18 at 10 UTC to 18 at 12 UTC
Wind 12 kt from the West/Southwest
Becoming
from 18 at 16 UTC to 18 at 18 UTC
Wind 12 kt from the North/Northwest
Probability 30% :
Temporary
from 18 at 15 UTC to 18 at 18 UTC
Wind 15 kt from the North with gusts up to 25 kt

TAF: LECV 180500Z 1806/1906 VRB04KT CAVOK TX27/1815Z TN11/1905Z BECMG 1810/1812 24012KT BECMG 1816/1818 34012KT PROB30 TEMPO 1815/1818 35015G25KT

Weather observations and forecasts of more than 4000 airports (METAR and TAF reports).

The available stations are represented by yellow and red dots on the map.

Hover mouse over dot to see the name of the station.

Then click to see weather observations and forecasts.

To change the map : click on the green buttons with a black cross to zoom in, on the green button with a dash to zoom out, or on the green arrows for adjacent maps.


METAR-TAF: